Monte Toledo — CQRA — position and weather

sailwx.info

Track history (hours):
 
Tides and Currents Weather Stations Pressure Air Temp Water Temp Dewpoint Dewpoint Depression Visibility Wind Speed Wind Dir Waves Ship Positions

Monte Toledo

Last reported at 2017-Sep-17 14:41 UTC. Time now 2017-Oct-17 02:04 UTC.
Position N 57°53' E 005°54'.
Warning: this ship's position is 29 days out of date.

Length 274 m; draft 12.7 m.

Type: Tanker. MMSI: 255740000.

Date/timePositionNaut miles runAvg speedWind from/ knotsBaromVisibWave heightAir tempDewpointWater temp
2017-Sep-17 14:41N 57°53' E 005°54'213.0
2017-Sep-17 14:30N 57°52' E 005°59'712.8
2017-Sep-17 13:59N 57°51' E 006°11'612.8
2017-Sep-17 13:30N 57°50' E 006°22'613.0
2017-Sep-17 13:00N 57°49' E 006°34'713.3
2017-Sep-17 12:30N 57°48' E 006°47'713.6
2017-Sep-17 12:00N 57°48' E 006°60'714.1
2017-Sep-17 11:30N 57°47' E 007°13'714.1
2017-Sep-17 11:00N 57°47' E 007°26'713.8
2017-Sep-17 10:31N 57°47' E 007°39'713.4
2017-Sep-17 10:00N 57°46' E 007°52'713.0
2017-Sep-17 09:30N 57°46' E 008°04'5312.4
2017-Sep-17 05:12N 57°47' E 009°44'312.6
2017-Sep-17 05:00N 57°48' E 009°49'612.3
2017-Sep-17 04:31N 57°50' E 009°59'510.9
2017-Sep-17 04:00N 57°50' E 010°09'612.3
2017-Sep-17 03:30N 57°49' E 010°20'611.6
2017-Sep-17 03:00N 57°48' E 010°31'612.0
2017-Sep-17 02:30N 57°47' E 010°42'611.3
2017-Sep-17 01:58N 57°44' E 010°53'611.2
2017-Sep-17 01:28N 57°41' E 011°00'612.7
2017-Sep-17 01:00N 57°37' E 011°08'612.6
2017-Sep-17 00:29N 57°33' E 011°17'612.2
2017-Sep-16 23:59N 57°28' E 011°26'613.0
2017-Sep-16 23:30N 57°22' E 011°29'713.1
2017-Sep-16 23:00N 57°16' E 011°33'713.1
2017-Sep-16 22:30N 57°10' E 011°38'713.2
2017-Sep-16 21:59N 57°04' E 011°42'10210.8
2017-Sep-16 12:35N 55°24' E 010°60'411.0
2017-Sep-16 12:12N 55°21' E 011°02'211.2
2017-Sep-16 11:59N 55°18' E 011°03'610.6
2017-Sep-16 11:26N 55°12' E 011°06'410.2
2017-Sep-16 11:00N 55°10' E 011°00'511.0
2017-Sep-16 10:31N 55°04' E 011°00'510.9
2017-Sep-16 10:01N 54°59' E 010°58'510.8
2017-Sep-16 09:31N 54°55' E 010°52'510.9
2017-Sep-16 09:01N 54°50' E 010°50'611.2
2017-Sep-16 08:31N 54°44' E 010°47'511.0
2017-Sep-16 08:01N 54°39' E 010°51'612.0
2017-Sep-16 07:31N 54°36' E 010°60'611.6
2017-Sep-16 07:01N 54°36' E 011°10'612.2
2017-Sep-16 06:31N 54°34' E 011°19'612.3
2017-Sep-16 06:01N 54°31' E 011°29'612.6
2017-Sep-16 05:31N 54°28' E 011°39'712.8
2017-Sep-16 04:59N 54°26' E 011°50'712.3
2017-Sep-16 04:27N 54°26' E 012°01'710.3
2017-Sep-16 03:47N 54°28' E 012°12'311.7
2017-Sep-16 03:31N 54°31' E 012°14'5 9.3
2017-Sep-16 03:01N 54°36' E 012°16'5 9.3
2017-Sep-16 02:31N 54°38' E 012°23'6211.4
2017-Sep-15 21:02N 55°03' E 014°02'011.9
2017-Sep-15 21:00N 55°04' E 014°03'611.8
2017-Sep-15 20:31N 55°08' E 014°10'612.2
2017-Sep-15 20:00N 55°13' E 014°16'612.5
2017-Sep-15 19:30N 55°18' E 014°23'612.3
2017-Sep-15 19:00N 55°22' E 014°30'611.5
2017-Sep-15 18:30N 55°26' E 014°37'611.4
2017-Sep-15 18:00N 55°28' E 014°46'511.1
2017-Sep-15 17:31N 55°31' E 014°55'611.4
2017-Sep-15 17:00N 55°34' E 015°04'611.6
2017-Sep-15 16:31N 55°37' E 015°12'611.7
2017-Sep-15 16:01N 55°39' E 015°22'611.8
2017-Sep-15 15:31N 55°40' E 015°32'611.7
2017-Sep-15 15:01N 55°42' E 015°42'611.6
2017-Sep-15 14:31N 55°45' E 015°51'611.0
2017-Sep-15 14:00N 55°45' E 016°01'611.7
2017-Sep-15 13:31N 55°46' E 016°11'611.7
2017-Sep-15 13:00N 55°48' E 016°21'612.0
2017-Sep-15 12:31N 55°49' E 016°31'611.8
2017-Sep-15 12:01N 55°51' E 016°42'30711.4
2017-Sep-14 09:03N 59°36' E 023°12'112.9
2017-Sep-14 08:58N 59°37' E 023°14'612.7
2017-Sep-14 08:31N 59°39' E 023°25'612.4
2017-Sep-14 08:00N 59°40' E 023°37'712.3
2017-Sep-14 07:28N 59°42' E 023°50'612.6
2017-Sep-14 06:59N 59°44' E 024°01'712.8
2017-Sep-14 06:24N 59°46' E 024°16'512.4
2017-Sep-14 06:01N 59°47' E 024°25'612.2
2017-Sep-14 05:31N 59°49' E 024°37'612.3
2017-Sep-14 05:00N 59°50' E 024°49'612.4
2017-Sep-14 04:30N 59°51' E 025°01'3712.6
2017-Sep-14 01:37N 59°58' E 026°12'112.4
2017-Sep-14 01:31N 59°59' E 026°15'612.5
2017-Sep-14 01:00N 60°00' E 026°27'612.4
2017-Sep-14 00:30N 60°01' E 026°39'612.5
2017-Sep-14 00:00N 60°00' E 026°51'612.2
2017-Sep-13 23:30N 59°59' E 027°03'612.5
2017-Sep-13 23:01N 60°03' E 027°14'612.5
2017-Sep-13 22:30N 60°06' E 027°25'612.5
2017-Sep-13 22:00N 60°09' E 027°35'612.0
2017-Sep-13 21:30N 60°12' E 027°46'612.5
2017-Sep-13 21:00N 60°11' E 027°58'612.5
2017-Sep-13 20:31N 60°09' E 028°10'612.2
2017-Sep-13 20:00N 60°06' E 028°21'611.8
2017-Sep-13 19:31N 60°04' E 028°31'4 8.3
2017-Sep-13 19:00N 60°01' E 028°37'510.0
2017-Sep-13 18:31N 59°56' E 028°34'4 7.9
2017-Sep-13 18:00N 59°53' E 028°29'5 9.7
2017-Sep-13 17:30N 59°48' E 028°25'2 3.8
2017-Sep-13 16:58N 59°46' E 028°25'0 0.1
2017-Sep-13 16:28N 59°46' E 028°25'0 0.0
2017-Sep-13 15:58N 59°46' E 028°25'0 0.0
2017-Sep-13 15:28N 59°46' E 028°25'0 0.0
2017-Sep-13 14:58N 59°46' E 028°25'0 0.0
2017-Sep-13 14:28N 59°46' E 028°25'0 0.0
2017-Sep-13 13:58N 59°46' E 028°25'0 0.0
2017-Sep-13 13:28N 59°46' E 028°25'0 0.1
2017-Sep-13 12:58N 59°46' E 028°25'0 0.0
2017-Sep-13 12:25N 59°46' E 028°25'0 0.0
2017-Sep-13 11:55N 59°46' E 028°25'0 0.0
2017-Sep-13 11:25N 59°46' E 028°25'0 0.0
2017-Sep-13 10:58N 59°46' E 028°25'0 0.0
2017-Sep-13 10:25N 59°46' E 028°25'0 0.0
2017-Sep-13 09:58N 59°46' E 028°25'0 0.0
2017-Sep-13 09:28N 59°46' E 028°25'0 0.0
2017-Sep-13 08:58N 59°46' E 028°25'0 0.0
2017-Sep-13 08:28N 59°46' E 028°25'0 0.0
2017-Sep-13 07:58N 59°46' E 028°25'0 0.3
2017-Sep-13 07:28N 59°46' E 028°25'1 1.3
2017-Sep-13 07:00N 59°46' E 028°24'3 5.5
2017-Sep-13 06:30N 59°43' E 028°25'1 1.7
2017-Sep-13 05:54N 59°42' E 028°26'0 0.0
2017-Sep-13 05:24N 59°42' E 028°26'0 0.0
2017-Sep-13 04:57N 59°42' E 028°26'0 0.0
2017-Sep-13 04:27N 59°42' E 028°26'0 0.0
2017-Sep-13 03:57N 59°42' E 028°26'0 0.0
2017-Sep-13 03:27N 59°42' E 028°26'0 0.0
2017-Sep-13 02:57N 59°42' E 028°26'0 0.0
2017-Sep-13 02:27N 59°42' E 028°26'0 0.0
2017-Sep-13 02:00N 59°42' E 028°26'0 0.0
2017-Sep-13 01:30N 59°42' E 028°26'0 0.0
2017-Sep-13 01:00N 59°42' E 028°26'0 0.0
2017-Sep-13 00:30N 59°42' E 028°26'0 0.0
2017-Sep-12 23:57N 59°42' E 028°26'0 0.0
2017-Sep-12 23:30N 59°42' E 028°26'0 0.0
2017-Sep-12 22:57N 59°42' E 028°26'0 0.0
2017-Sep-12 22:30N 59°42' E 028°26'0 0.0
2017-Sep-12 22:00N 59°42' E 028°26'0 0.0
2017-Sep-12 21:18N 59°42' E 028°26'0 0.0
2017-Sep-12 21:00N 59°42' E 028°26'0 0.0
2017-Sep-12 20:30N 59°42' E 028°26'0 0.0
2017-Sep-12 20:00N 59°42' E 028°26'0 0.0
2017-Sep-12 19:27N 59°42' E 028°26'0 0.0
2017-Sep-12 18:57N 59°42' E 028°26'0 0.0
2017-Sep-12 18:30N 59°42' E 028°26'0 0.0
2017-Sep-12 18:00N 59°42' E 028°26'0 0.0
2017-Sep-12 17:30N 59°42' E 028°26'0 0.0
2017-Sep-12 16:54N 59°42' E 028°26'0 0.0
2017-Sep-12 16:30N 59°42' E 028°26'0 0.0
2017-Sep-12 15:54N 59°42' E 028°26'0 0.0
2017-Sep-12 15:24N 59°42' E 028°26'0 0.0
2017-Sep-12 14:54N 59°42' E 028°26'0 0.0
2017-Sep-12 14:27N 59°42' E 028°26'0 0.0
2017-Sep-12 12:42N 59°42' E 028°26'0 0.0
2017-Sep-12 12:24N 59°42' E 028°26'0 0.0
2017-Sep-12 11:57N 59°42' E 028°26'0 0.0
2017-Sep-12 11:30N 59°42' E 028°26'0 0.0
2017-Sep-12 11:00N 59°42' E 028°26'0 0.0
2017-Sep-12 10:30N 59°42' E 028°26'0 0.0
2017-Sep-12 10:00N 59°42' E 028°26'0 0.0
2017-Sep-12 09:30N 59°42' E 028°26'0 0.0
2017-Sep-12 09:00N 59°42' E 028°26'0 0.0
2017-Sep-12 08:30N 59°42' E 028°26'0 0.0
2017-Sep-12 07:48N 59°42' E 028°26'0 0.0
2017-Sep-12 07:30N 59°42' E 028°26'0 0.0
2017-Sep-12 07:00N 59°42' E 028°26'0 0.0
2017-Sep-12 06:30N 59°42' E 028°26'0 0.0
2017-Sep-12 06:00N 59°42' E 028°26'0 0.0
2017-Sep-12 05:21N 59°42' E 028°26'0 0.0
2017-Sep-12 04:36N 59°42' E 028°26'0 0.0
2017-Sep-12 04:18N 59°42' E 028°26'0 0.0
2017-Sep-12 03:54N 59°42' E 028°26'0 0.0
2017-Sep-12 03:24N 59°42' E 028°26'0 0.0
2017-Sep-12 02:54N 59°42' E 028°26'0 0.0
2017-Sep-12 02:24N 59°42' E 028°26'0 0.0
2017-Sep-12 01:54N 59°42' E 028°26'0 0.0
2017-Sep-12 01:24N 59°42' E 028°26'0 0.0
2017-Sep-12 00:57N 59°42' E 028°26'0 0.0
2017-Sep-12 00:27N 59°42' E 028°26'0 0.0
2017-Sep-11 23:57N 59°42' E 028°26'0 0.0
2017-Sep-11 23:24N 59°42' E 028°26'0 0.0
2017-Sep-11 22:57N 59°42' E 028°26'0 0.0
2017-Sep-11 22:24N 59°42' E 028°26'0 0.1
2017-Sep-11 22:00N 59°42' E 028°26'1 1.6
2017-Sep-11 21:30N 59°41' E 028°24'2 5.0
2017-Sep-11 21:00N 59°44' E 028°23'3 6.8
2017-Sep-11 20:30N 59°47' E 028°25'511.0
2017-Sep-11 20:01N 59°52' E 028°28'510.3
2017-Sep-11 19:30N 59°57' E 028°34'3 6.3
2017-Sep-11 19:00N 59°60' E 028°35'3 5.1
2017-Sep-11 18:30N 60°02' E 028°33'4 8.5
2017-Sep-11 18:00N 60°03' E 028°25'4 8.8
2017-Sep-11 17:31N 60°06' E 028°18'4 8.6
2017-Sep-11 17:01N 60°08' E 028°10'4 8.9
2017-Sep-11 16:31N 60°09' E 028°02'4 8.9
2017-Sep-11 16:01N 60°10' E 027°53'5 9.9
2017-Sep-11 15:31N 60°09' E 027°43'611.5
2017-Sep-11 15:00N 60°06' E 027°33'612.9
2017-Sep-11 14:30N 60°03' E 027°22'613.0
2017-Sep-11 14:01N 59°60' E 027°11'612.0
2017-Sep-11 13:30N 59°58' E 026°59'612.9
2017-Sep-11 13:00N 59°59' E 026°47'612.4
2017-Sep-11 12:31N 59°59' E 026°34'612.8
2017-Sep-11 12:00N 59°57' E 026°22'1613.1
2017-Sep-11 10:46N 59°53' E 025°51'613.1
2017-Sep-11 10:21N 59°52' E 025°40'1312.5
2017-Sep-11 09:17N 59°49' E 025°15'412.1
2017-Sep-11 09:00N 59°48' E 025°08'612.5
2017-Sep-11 08:31N 59°47' E 024°56'612.9
2017-Sep-11 08:00N 59°45' E 024°43'612.8
2017-Sep-11 07:30N 59°44' E 024°31'612.9
2017-Sep-11 07:00N 59°43' E 024°18'612.7
2017-Sep-11 06:30N 59°41' E 024°06'612.6
2017-Sep-11 06:00N 59°39' E 023°55'612.8
2017-Sep-11 05:31N 59°37' E 023°43'713.1
2017-Sep-11 05:00N 59°35' E 023°30'613.0
2017-Sep-11 04:30N 59°32' E 023°18'713.5
2017-Sep-11 03:58N 59°31' E 023°04'712.8
2017-Sep-11 03:23N 59°28' E 022°50'2812.5
2017-Sep-11 01:08N 59°13' E 022°04'213.1
2017-Sep-11 00:59N 59°12' E 022°01'26112.6
2017-Sep-10 04:16N 55°49' E 016°55'313.3
2017-Sep-10 04:00N 55°48' E 016°50'713.2
2017-Sep-10 03:30N 55°47' E 016°38'613.0
2017-Sep-10 03:00N 55°46' E 016°27'612.8
2017-Sep-10 02:30N 55°44' E 016°16'612.9
2017-Sep-10 02:00N 55°42' E 016°05'612.9
2017-Sep-10 01:30N 55°41' E 015°54'713.2
2017-Sep-10 01:00N 55°40' E 015°42'713.1
2017-Sep-10 00:30N 55°38' E 015°31'612.8
2017-Sep-10 00:00N 55°37' E 015°20'612.7
2017-Sep-09 23:30N 55°34' E 015°10'712.9
2017-Sep-09 22:57N 55°30' E 014°59'613.2
2017-Sep-09 22:30N 55°27' E 014°50'713.1
2017-Sep-09 22:00N 55°24' E 014°40'613.0
2017-Sep-09 21:30N 55°19' E 014°33'712.9
2017-Sep-09 21:00N 55°14' E 014°26'612.5
2017-Sep-09 20:30N 55°09' E 014°19'612.7
2017-Sep-09 20:00N 55°04' E 014°12'713.0
2017-Sep-09 19:30N 55°01' E 014°02'713.2
2017-Sep-09 19:00N 54°58' E 013°51'713.1
2017-Sep-09 18:30N 54°56' E 013°40'3313.3
2017-Sep-09 16:02N 54°45' E 012°47'013.3
2017-Sep-09 16:00N 54°45' E 012°46'713.1
2017-Sep-09 15:30N 54°41' E 012°37'813.2
2017-Sep-09 14:55N 54°38' E 012°25'612.4
2017-Sep-09 14:27N 54°34' E 012°18'611.1
2017-Sep-09 13:57N 54°29' E 012°13'510.4
2017-Sep-09 13:30N 54°25' E 012°09'6 9.8
2017-Sep-09 12:56N 54°24' E 012°00'613.2
2017-Sep-09 12:30N 54°24' E 011°50'612.2
2017-Sep-09 12:00N 54°26' E 011°40'612.0
2017-Sep-09 11:30N 54°29' E 011°31'611.8
2017-Sep-09 11:00N 54°32' E 011°22'612.2
2017-Sep-09 10:30N 54°34' E 011°12'612.5
2017-Sep-09 10:00N 54°38' E 011°03'612.6
2017-Sep-09 09:30N 54°41' E 010°54'611.4
2017-Sep-09 09:00N 54°46' E 010°51'612.5
2017-Sep-09 08:30N 54°53' E 010°53'5 9.1
2017-Sep-09 08:00N 54°57' E 010°56'611.9
2017-Sep-09 07:30N 55°02' E 011°01'612.2
2017-Sep-09 07:00N 55°08' E 011°03'510.7
2017-Sep-09 06:30N 55°13' E 011°06'611.7
2017-Sep-09 05:59N 55°18' E 011°02'10610.9
2017-Sep-08 20:14N 57°02' E 011°41'612.6
2017-Sep-08 19:48N 57°07' E 011°37'412.6
2017-Sep-08 19:27N 57°12' E 011°35'512.4
2017-Sep-08 19:00N 57°17' E 011°31'612.2
2017-Sep-08 18:30N 57°22' E 011°27'612.3
2017-Sep-08 18:00N 57°28' E 011°22'612.3
2017-Sep-08 17:30N 57°33' E 011°14'612.9
2017-Sep-08 17:00N 57°37' E 011°05'612.6
2017-Sep-08 16:30N 57°41' E 010°57'612.6
2017-Sep-08 16:00N 57°46' E 010°48'5 9.3
2017-Sep-08 15:30N 57°48' E 010°40'4 7.6
2017-Sep-08 15:00N 57°50' E 010°35'4 7.4
2017-Sep-08 14:30N 57°54' E 010°32'5 9.7
2017-Sep-08 14:00N 57°58' E 010°28'5 8.0
2017-Sep-08 13:26N 57°58' E 010°19'21312.3
2017-Sep-07 20:06N 55°24' E 005°52'213.6
2017-Sep-07 19:59N 55°22' E 005°51'713.5
2017-Sep-07 19:30N 55°17' E 005°45'  
Track history (hours):
 
Tides and Currents Weather Stations Pressure Air Temp Water Temp Dewpoint Dewpoint Depression Visibility Wind Speed Wind Dir Waves Ship Positions

Monte Toledo

Last reported at 2017-Sep-17 14:41 UTC. Time now 2017-Oct-17 02:04 UTC.
Position N 57°53' E 005°54'.
Warning: this ship's position is 29 days out of date.

Length 274 m; draft 12.7 m.

Type: Tanker. MMSI: 255740000.

Date/timePositionNaut miles runAvg speedWind from/ knotsBaromVisibWave heightAir tempDewpointWater temp
2017-Sep-17 14:41N 57°53' E 005°54'213.0
2017-Sep-17 14:30N 57°52' E 005°59'712.8
2017-Sep-17 13:59N 57°51' E 006°11'612.8
2017-Sep-17 13:30N 57°50' E 006°22'613.0
2017-Sep-17 13:00N 57°49' E 006°34'713.3
2017-Sep-17 12:30N 57°48' E 006°47'713.6
2017-Sep-17 12:00N 57°48' E 006°60'714.1
2017-Sep-17 11:30N 57°47' E 007°13'714.1
2017-Sep-17 11:00N 57°47' E 007°26'713.8
2017-Sep-17 10:31N 57°47' E 007°39'713.4
2017-Sep-17 10:00N 57°46' E 007°52'713.0
2017-Sep-17 09:30N 57°46' E 008°04'5312.4
2017-Sep-17 05:12N 57°47' E 009°44'312.6
2017-Sep-17 05:00N 57°48' E 009°49'612.3
2017-Sep-17 04:31N 57°50' E 009°59'510.9
2017-Sep-17 04:00N 57°50' E 010°09'612.3
2017-Sep-17 03:30N 57°49' E 010°20'611.6
2017-Sep-17 03:00N 57°48' E 010°31'612.0
2017-Sep-17 02:30N 57°47' E 010°42'611.3
2017-Sep-17 01:58N 57°44' E 010°53'611.2
2017-Sep-17 01:28N 57°41' E 011°00'612.7
2017-Sep-17 01:00N 57°37' E 011°08'612.6
2017-Sep-17 00:29N 57°33' E 011°17'612.2
2017-Sep-16 23:59N 57°28' E 011°26'613.0
2017-Sep-16 23:30N 57°22' E 011°29'713.1
2017-Sep-16 23:00N 57°16' E 011°33'713.1
2017-Sep-16 22:30N 57°10' E 011°38'713.2
2017-Sep-16 21:59N 57°04' E 011°42'10210.8
2017-Sep-16 12:35N 55°24' E 010°60'411.0
2017-Sep-16 12:12N 55°21' E 011°02'211.2
2017-Sep-16 11:59N 55°18' E 011°03'610.6
2017-Sep-16 11:26N 55°12' E 011°06'410.2
2017-Sep-16 11:00N 55°10' E 011°00'511.0
2017-Sep-16 10:31N 55°04' E 011°00'510.9
2017-Sep-16 10:01N 54°59' E 010°58'510.8
2017-Sep-16 09:31N 54°55' E 010°52'510.9
2017-Sep-16 09:01N 54°50' E 010°50'611.2
2017-Sep-16 08:31N 54°44' E 010°47'511.0
2017-Sep-16 08:01N 54°39' E 010°51'612.0
2017-Sep-16 07:31N 54°36' E 010°60'611.6
2017-Sep-16 07:01N 54°36' E 011°10'612.2
2017-Sep-16 06:31N 54°34' E 011°19'612.3
2017-Sep-16 06:01N 54°31' E 011°29'612.6
2017-Sep-16 05:31N 54°28' E 011°39'712.8
2017-Sep-16 04:59N 54°26' E 011°50'712.3
2017-Sep-16 04:27N 54°26' E 012°01'710.3
2017-Sep-16 03:47N 54°28' E 012°12'311.7
2017-Sep-16 03:31N 54°31' E 012°14'5 9.3
2017-Sep-16 03:01N 54°36' E 012°16'5 9.3
2017-Sep-16 02:31N 54°38' E 012°23'6211.4
2017-Sep-15 21:02N 55°03' E 014°02'011.9
2017-Sep-15 21:00N 55°04' E 014°03'611.8
2017-Sep-15 20:31N 55°08' E 014°10'612.2
2017-Sep-15 20:00N 55°13' E 014°16'612.5
2017-Sep-15 19:30N 55°18' E 014°23'612.3
2017-Sep-15 19:00N 55°22' E 014°30'611.5
2017-Sep-15 18:30N 55°26' E 014°37'611.4
2017-Sep-15 18:00N 55°28' E 014°46'511.1
2017-Sep-15 17:31N 55°31' E 014°55'611.4
2017-Sep-15 17:00N 55°34' E 015°04'611.6
2017-Sep-15 16:31N 55°37' E 015°12'611.7
2017-Sep-15 16:01N 55°39' E 015°22'611.8
2017-Sep-15 15:31N 55°40' E 015°32'611.7
2017-Sep-15 15:01N 55°42' E 015°42'611.6
2017-Sep-15 14:31N 55°45' E 015°51'611.0
2017-Sep-15 14:00N 55°45' E 016°01'611.7
2017-Sep-15 13:31N 55°46' E 016°11'611.7
2017-Sep-15 13:00N 55°48' E 016°21'612.0
2017-Sep-15 12:31N 55°49' E 016°31'611.8
2017-Sep-15 12:01N 55°51' E 016°42'30711.4
2017-Sep-14 09:03N 59°36' E 023°12'112.9
2017-Sep-14 08:58N 59°37' E 023°14'612.7
2017-Sep-14 08:31N 59°39' E 023°25'612.4
2017-Sep-14 08:00N 59°40' E 023°37'712.3
2017-Sep-14 07:28N 59°42' E 023°50'612.6
2017-Sep-14 06:59N 59°44' E 024°01'712.8
2017-Sep-14 06:24N 59°46' E 024°16'512.4
2017-Sep-14 06:01N 59°47' E 024°25'612.2
2017-Sep-14 05:31N 59°49' E 024°37'612.3
2017-Sep-14 05:00N 59°50' E 024°49'612.4
2017-Sep-14 04:30N 59°51' E 025°01'3712.6
2017-Sep-14 01:37N 59°58' E 026°12'112.4
2017-Sep-14 01:31N 59°59' E 026°15'612.5
2017-Sep-14 01:00N 60°00' E 026°27'612.4
2017-Sep-14 00:30N 60°01' E 026°39'612.5
2017-Sep-14 00:00N 60°00' E 026°51'612.2
2017-Sep-13 23:30N 59°59' E 027°03'612.5
2017-Sep-13 23:01N 60°03' E 027°14'612.5
2017-Sep-13 22:30N 60°06' E 027°25'612.5
2017-Sep-13 22:00N 60°09' E 027°35'612.0
2017-Sep-13 21:30N 60°12' E 027°46'612.5
2017-Sep-13 21:00N 60°11' E 027°58'612.5
2017-Sep-13 20:31N 60°09' E 028°10'612.2
2017-Sep-13 20:00N 60°06' E 028°21'611.8
2017-Sep-13 19:31N 60°04' E 028°31'4 8.3
2017-Sep-13 19:00N 60°01' E 028°37'510.0
2017-Sep-13 18:31N 59°56' E 028°34'4 7.9
2017-Sep-13 18:00N 59°53' E 028°29'5 9.7
2017-Sep-13 17:30N 59°48' E 028°25'2 3.8
2017-Sep-13 16:58N 59°46' E 028°25'0 0.1
2017-Sep-13 16:28N 59°46' E 028°25'0 0.0
2017-Sep-13 15:58N 59°46' E 028°25'0 0.0
2017-Sep-13 15:28N 59°46' E 028°25'0 0.0
2017-Sep-13 14:58N 59°46' E 028°25'0 0.0
2017-Sep-13 14:28N 59°46' E 028°25'0 0.0
2017-Sep-13 13:58N 59°46' E 028°25'0 0.0
2017-Sep-13 13:28N 59°46' E 028°25'0 0.1
2017-Sep-13 12:58N 59°46' E 028°25'0 0.0
2017-Sep-13 12:25N 59°46' E 028°25'0 0.0
2017-Sep-13 11:55N 59°46' E 028°25'0 0.0
2017-Sep-13 11:25N 59°46' E 028°25'0 0.0
2017-Sep-13 10:58N 59°46' E 028°25'0 0.0
2017-Sep-13 10:25N 59°46' E 028°25'0 0.0
2017-Sep-13 09:58N 59°46' E 028°25'0 0.0
2017-Sep-13 09:28N 59°46' E 028°25'0 0.0
2017-Sep-13 08:58N 59°46' E 028°25'0 0.0
2017-Sep-13 08:28N 59°46' E 028°25'0 0.0
2017-Sep-13 07:58N 59°46' E 028°25'0 0.3
2017-Sep-13 07:28N 59°46' E 028°25'1 1.3
2017-Sep-13 07:00N 59°46' E 028°24'3 5.5
2017-Sep-13 06:30N 59°43' E 028°25'1 1.7
2017-Sep-13 05:54N 59°42' E 028°26'0 0.0
2017-Sep-13 05:24N 59°42' E 028°26'0 0.0
2017-Sep-13 04:57N 59°42' E 028°26'0 0.0
2017-Sep-13 04:27N 59°42' E 028°26'0 0.0
2017-Sep-13 03:57N 59°42' E 028°26'0 0.0
2017-Sep-13 03:27N 59°42' E 028°26'0 0.0
2017-Sep-13 02:57N 59°42' E 028°26'0 0.0
2017-Sep-13 02:27N 59°42' E 028°26'0 0.0
2017-Sep-13 02:00N 59°42' E 028°26'0 0.0
2017-Sep-13 01:30N 59°42' E 028°26'0 0.0
2017-Sep-13 01:00N 59°42' E 028°26'0 0.0
2017-Sep-13 00:30N 59°42' E 028°26'0 0.0
2017-Sep-12 23:57N 59°42' E 028°26'0 0.0
2017-Sep-12 23:30N 59°42' E 028°26'0 0.0
2017-Sep-12 22:57N 59°42' E 028°26'0 0.0
2017-Sep-12 22:30N 59°42' E 028°26'0 0.0
2017-Sep-12 22:00N 59°42' E 028°26'0 0.0
2017-Sep-12 21:18N 59°42' E 028°26'0 0.0
2017-Sep-12 21:00N 59°42' E 028°26'0 0.0
2017-Sep-12 20:30N 59°42' E 028°26'0 0.0
2017-Sep-12 20:00N 59°42' E 028°26'0 0.0
2017-Sep-12 19:27N 59°42' E 028°26'0 0.0
2017-Sep-12 18:57N 59°42' E 028°26'0 0.0
2017-Sep-12 18:30N 59°42' E 028°26'0 0.0
2017-Sep-12 18:00N 59°42' E 028°26'0 0.0
2017-Sep-12 17:30N 59°42' E 028°26'0 0.0
2017-Sep-12 16:54N 59°42' E 028°26'0 0.0
2017-Sep-12 16:30N 59°42' E 028°26'0 0.0
2017-Sep-12 15:54N 59°42' E 028°26'0 0.0
2017-Sep-12 15:24N 59°42' E 028°26'0 0.0
2017-Sep-12 14:54N 59°42' E 028°26'0 0.0
2017-Sep-12 14:27N 59°42' E 028°26'0 0.0
2017-Sep-12 12:42N 59°42' E 028°26'0 0.0
2017-Sep-12 12:24N 59°42' E 028°26'0 0.0
2017-Sep-12 11:57N 59°42' E 028°26'0 0.0
2017-Sep-12 11:30N 59°42' E 028°26'0 0.0
2017-Sep-12 11:00N 59°42' E 028°26'0 0.0
2017-Sep-12 10:30N 59°42' E 028°26'0 0.0
2017-Sep-12 10:00N 59°42' E 028°26'0 0.0
2017-Sep-12 09:30N 59°42' E 028°26'0 0.0
2017-Sep-12 09:00N 59°42' E 028°26'0 0.0
2017-Sep-12 08:30N 59°42' E 028°26'0 0.0
2017-Sep-12 07:48N 59°42' E 028°26'0 0.0
2017-Sep-12 07:30N 59°42' E 028°26'0 0.0
2017-Sep-12 07:00N 59°42' E 028°26'0 0.0
2017-Sep-12 06:30N 59°42' E 028°26'0 0.0
2017-Sep-12 06:00N 59°42' E 028°26'0 0.0
2017-Sep-12 05:21N 59°42' E 028°26'0 0.0
2017-Sep-12 04:36N 59°42' E 028°26'0 0.0
2017-Sep-12 04:18N 59°42' E 028°26'0 0.0
2017-Sep-12 03:54N 59°42' E 028°26'0 0.0
2017-Sep-12 03:24N 59°42' E 028°26'0 0.0
2017-Sep-12 02:54N 59°42' E 028°26'0 0.0
2017-Sep-12 02:24N 59°42' E 028°26'0 0.0
2017-Sep-12 01:54N 59°42' E 028°26'0 0.0
2017-Sep-12 01:24N 59°42' E 028°26'0 0.0
2017-Sep-12 00:57N 59°42' E 028°26'0 0.0
2017-Sep-12 00:27N 59°42' E 028°26'0 0.0
2017-Sep-11 23:57N 59°42' E 028°26'0 0.0
2017-Sep-11 23:24N 59°42' E 028°26'0 0.0
2017-Sep-11 22:57N 59°42' E 028°26'0 0.0
2017-Sep-11 22:24N 59°42' E 028°26'0 0.1
2017-Sep-11 22:00N 59°42' E 028°26'1 1.6
2017-Sep-11 21:30N 59°41' E 028°24'2 5.0
2017-Sep-11 21:00N 59°44' E 028°23'3 6.8
2017-Sep-11 20:30N 59°47' E 028°25'511.0
2017-Sep-11 20:01N 59°52' E 028°28'510.3
2017-Sep-11 19:30N 59°57' E 028°34'3 6.3
2017-Sep-11 19:00N 59°60' E 028°35'3 5.1
2017-Sep-11 18:30N 60°02' E 028°33'4 8.5
2017-Sep-11 18:00N 60°03' E 028°25'4 8.8
2017-Sep-11 17:31N 60°06' E 028°18'4 8.6
2017-Sep-11 17:01N 60°08' E 028°10'4 8.9
2017-Sep-11 16:31N 60°09' E 028°02'4 8.9
2017-Sep-11 16:01N 60°10' E 027°53'5 9.9
2017-Sep-11 15:31N 60°09' E 027°43'611.5
2017-Sep-11 15:00N 60°06' E 027°33'612.9
2017-Sep-11 14:30N 60°03' E 027°22'613.0
2017-Sep-11 14:01N 59°60' E 027°11'612.0
2017-Sep-11 13:30N 59°58' E 026°59'612.9
2017-Sep-11 13:00N 59°59' E 026°47'612.4
2017-Sep-11 12:31N 59°59' E 026°34'612.8
2017-Sep-11 12:00N 59°57' E 026°22'1613.1
2017-Sep-11 10:46N 59°53' E 025°51'613.1
2017-Sep-11 10:21N 59°52' E 025°40'1312.5
2017-Sep-11 09:17N 59°49' E 025°15'412.1
2017-Sep-11 09:00N 59°48' E 025°08'612.5
2017-Sep-11 08:31N 59°47' E 024°56'612.9
2017-Sep-11 08:00N 59°45' E 024°43'612.8
2017-Sep-11 07:30N 59°44' E 024°31'612.9
2017-Sep-11 07:00N 59°43' E 024°18'612.7
2017-Sep-11 06:30N 59°41' E 024°06'612.6
2017-Sep-11 06:00N 59°39' E 023°55'612.8
2017-Sep-11 05:31N 59°37' E 023°43'713.1
2017-Sep-11 05:00N 59°35' E 023°30'613.0
2017-Sep-11 04:30N 59°32' E 023°18'713.5
2017-Sep-11 03:58N 59°31' E 023°04'712.8
2017-Sep-11 03:23N 59°28' E 022°50'2812.5
2017-Sep-11 01:08N 59°13' E 022°04'213.1
2017-Sep-11 00:59N 59°12' E 022°01'26112.6
2017-Sep-10 04:16N 55°49' E 016°55'313.3
2017-Sep-10 04:00N 55°48' E 016°50'713.2
2017-Sep-10 03:30N 55°47' E 016°38'613.0
2017-Sep-10 03:00N 55°46' E 016°27'612.8
2017-Sep-10 02:30N 55°44' E 016°16'612.9
2017-Sep-10 02:00N 55°42' E 016°05'612.9
2017-Sep-10 01:30N 55°41' E 015°54'713.2
2017-Sep-10 01:00N 55°40' E 015°42'713.1
2017-Sep-10 00:30N 55°38' E 015°31'612.8
2017-Sep-10 00:00N 55°37' E 015°20'612.7
2017-Sep-09 23:30N 55°34' E 015°10'712.9
2017-Sep-09 22:57N 55°30' E 014°59'613.2
2017-Sep-09 22:30N 55°27' E 014°50'713.1
2017-Sep-09 22:00N 55°24' E 014°40'613.0
2017-Sep-09 21:30N 55°19' E 014°33'712.9
2017-Sep-09 21:00N 55°14' E 014°26'612.5
2017-Sep-09 20:30N 55°09' E 014°19'612.7
2017-Sep-09 20:00N 55°04' E 014°12'713.0
2017-Sep-09 19:30N 55°01' E 014°02'713.2
2017-Sep-09 19:00N 54°58' E 013°51'713.1
2017-Sep-09 18:30N 54°56' E 013°40'3313.3
2017-Sep-09 16:02N 54°45' E 012°47'013.3
2017-Sep-09 16:00N 54°45' E 012°46'713.1
2017-Sep-09 15:30N 54°41' E 012°37'813.2
2017-Sep-09 14:55N 54°38' E 012°25'612.4
2017-Sep-09 14:27N 54°34' E 012°18'611.1
2017-Sep-09 13:57N 54°29' E 012°13'510.4
2017-Sep-09 13:30N 54°25' E 012°09'6 9.8
2017-Sep-09 12:56N 54°24' E 012°00'613.2
2017-Sep-09 12:30N 54°24' E 011°50'612.2
2017-Sep-09 12:00N 54°26' E 011°40'612.0
2017-Sep-09 11:30N 54°29' E 011°31'611.8
2017-Sep-09 11:00N 54°32' E 011°22'612.2
2017-Sep-09 10:30N 54°34' E 011°12'612.5
2017-Sep-09 10:00N 54°38' E 011°03'612.6
2017-Sep-09 09:30N 54°41' E 010°54'611.4
2017-Sep-09 09:00N 54°46' E 010°51'612.5
2017-Sep-09 08:30N 54°53' E 010°53'5 9.1
2017-Sep-09 08:00N 54°57' E 010°56'611.9
2017-Sep-09 07:30N 55°02' E 011°01'612.2
2017-Sep-09 07:00N 55°08' E 011°03'510.7
2017-Sep-09 06:30N 55°13' E 011°06'611.7
2017-Sep-09 05:59N 55°18' E 011°02'10610.9
2017-Sep-08 20:14N 57°02' E 011°41'612.6
2017-Sep-08 19:48N 57°07' E 011°37'412.6
2017-Sep-08 19:27N 57°12' E 011°35'512.4
2017-Sep-08 19:00N 57°17' E 011°31'612.2
2017-Sep-08 18:30N 57°22' E 011°27'612.3
2017-Sep-08 18:00N 57°28' E 011°22'612.3
2017-Sep-08 17:30N 57°33' E 011°14'612.9
2017-Sep-08 17:00N 57°37' E 011°05'612.6
2017-Sep-08 16:30N 57°41' E 010°57'612.6
2017-Sep-08 16:00N 57°46' E 010°48'5 9.3
2017-Sep-08 15:30N 57°48' E 010°40'4 7.6
2017-Sep-08 15:00N 57°50' E 010°35'4 7.4
2017-Sep-08 14:30N 57°54' E 010°32'5 9.7
2017-Sep-08 14:00N 57°58' E 010°28'5 8.0
2017-Sep-08 13:26N 57°58' E 010°19'21312.3
2017-Sep-07 20:06N 55°24' E 005°52'213.6
2017-Sep-07 19:59N 55°22' E 005°51'713.5
2017-Sep-07 19:30N 55°17' E 005°45'  

Dump ship's entire track history